SEQM

Quito/Mariscal Sucre International Airport

Airport
ICAO code
SEQM
IATA Code
UIO
Summary
ICAO Region
CARSAM
ICAO Territory
Location

Tababela, Pichincha

Serving
Quito
Elevation
7874 ft
Coordinates
0° 7' 21" S , 78° 21' 31" W
KCC
Metar
Observation
SEQM 271100Z 12003KT 070V150 9999 FEW030 06/04 Q1026 NOSIG RMK A3032
Station
Mariscal Sucre International Airport
Date/Time
2022-09-27 11:00:00
Wind direction
120°
Wind speed
03 kts
Lowest cloud amount
few clouds
Temperature
6°C
Dew point
4°C
Humidity
86%
QNH
1026 hPa
Weather condition
n/a

Mariscal Sucre International Airport is the busiest airport in Ecuador and one of the busiest airports in South America. It is located in the Tababela parish, about 18 km east of Quito.

Climatology

Subtropical Highland climate (Köppen climate classification Cwb)

Airport map

Aerial View

SKYbrary Partners:

Safety knowledge contributed by: